createdAt,value
2023-02-11T00:00:20.929Z,78.93
2023-02-11T00:05:20.805Z,79.42
2023-02-11T00:10:21.330Z,78.54
2023-02-11T00:15:20.679Z,78.59
2023-02-11T00:20:20.768Z,78.37
2023-02-11T00:25:20.913Z,77.97
2023-02-11T00:30:20.707Z,77.54
2023-02-11T00:35:21.028Z,77.34
2023-02-11T00:40:21.187Z,77.01
2023-02-11T00:45:20.690Z,76.33
2023-02-11T00:50:20.944Z,75.83
2023-02-11T00:55:20.988Z,75.52
2023-02-11T01:00:21.287Z,75.40
2023-02-11T01:05:21.138Z,75.34
2023-02-11T01:10:21.043Z,75.09
2023-02-11T01:15:21.343Z,74.92
2023-02-11T01:20:23.248Z,74.55
2023-02-11T01:25:20.882Z,74.58
2023-02-11T01:30:20.905Z,74.96
2023-02-11T01:35:20.612Z,74.49
2023-02-11T01:40:21.101Z,74.52
2023-02-11T01:45:40.436Z,74.58
2023-02-11T01:50:20.613Z,74.67
2023-02-11T01:55:31.001Z,74.62
2023-02-11T02:00:23.861Z,74.37
2023-02-11T02:05:28.099Z,74.47
2023-02-11T02:10:24.948Z,74.43
2023-02-11T02:15:24.683Z,74.48
2023-02-11T02:20:40.298Z,74.54
2023-02-11T02:25:41.640Z,74.37
2023-02-11T02:30:39.982Z,74.58
2023-02-11T02:35:31.899Z,75.04
2023-02-11T02:40:26.025Z,74.92
2023-02-11T02:45:20.866Z,74.85
2023-02-11T02:50:29.156Z,75.00
2023-02-11T02:55:34.172Z,74.88
2023-02-11T03:00:26.120Z,74.69
2023-02-11T03:05:30.168Z,74.65
2023-02-11T03:10:26.041Z,74.53
2023-02-11T03:15:23.641Z,74.69
2023-02-11T03:20:22.184Z,74.43
2023-02-11T03:25:25.423Z,74.36
2023-02-11T03:30:26.014Z,74.02
2023-02-11T03:35:23.335Z,74.03
2023-02-11T03:40:24.895Z,73.71
2023-02-11T03:45:23.902Z,73.54
2023-02-11T03:50:22.326Z,73.25
2023-02-11T03:55:24.906Z,72.92
2023-02-11T04:00:20.573Z,72.93
2023-02-11T04:05:20.554Z,72.76
2023-02-11T04:10:21.234Z,72.53
2023-02-11T04:15:20.761Z,72.47
2023-02-11T04:20:20.632Z,72.34
2023-02-11T04:25:20.926Z,72.36
2023-02-11T04:30:20.572Z,72.16
2023-02-11T04:35:20.885Z,72.38
2023-02-11T04:40:20.779Z,72.29
2023-02-11T04:45:20.613Z,72.06
2023-02-11T04:50:20.436Z,71.85
2023-02-11T04:55:20.778Z,71.66
2023-02-11T05:00:20.540Z,71.76
2023-02-11T05:05:22.661Z,71.90
2023-02-11T05:10:20.522Z,71.94
2023-02-11T05:15:20.622Z,71.65
2023-02-11T05:20:21.336Z,71.42
2023-02-11T05:25:20.468Z,71.36
2023-02-11T05:30:20.919Z,71.15
2023-02-11T05:35:20.569Z,70.95
2023-02-11T05:40:20.478Z,70.82
2023-02-11T05:45:20.609Z,70.72
2023-02-11T05:50:20.676Z,70.73
2023-02-11T05:55:20.388Z,70.57
2023-02-11T06:00:20.660Z,70.48
2023-02-11T06:05:20.840Z,70.49
2023-02-11T06:10:20.683Z,70.46
2023-02-11T06:15:20.466Z,70.52
2023-02-11T06:20:20.549Z,70.48
2023-02-11T06:25:20.782Z,70.53
2023-02-11T06:30:20.360Z,70.45
2023-02-11T06:35:20.672Z,70.45
2023-02-11T06:40:20.418Z,70.53
2023-02-11T06:45:20.450Z,70.59
2023-02-11T06:50:21.088Z,70.57
2023-02-11T06:55:20.395Z,70.61
2023-02-11T07:00:20.560Z,70.77
2023-02-11T07:05:20.748Z,70.63
2023-02-11T07:10:20.444Z,70.75
2023-02-11T07:15:20.428Z,70.89
2023-02-11T07:20:20.442Z,71.36
2023-02-11T07:25:20.376Z,71.63
2023-02-11T07:30:20.758Z,72.23
2023-02-11T07:35:20.535Z,72.88
2023-02-11T07:40:20.589Z,73.38
2023-02-11T07:45:20.406Z,74.61
2023-02-11T07:50:20.545Z,74.97
2023-02-11T07:55:20.418Z,75.72
2023-02-11T08:00:21.281Z,76.22
2023-02-11T08:05:20.534Z,76.67
2023-02-11T08:10:21.023Z,76.33
2023-02-11T08:15:20.237Z,77.31
2023-02-11T08:20:20.816Z,77.76
2023-02-11T08:25:20.457Z,77.94
2023-02-11T08:30:20.642Z,79.52
2023-02-11T08:35:20.470Z,79.18
2023-02-11T08:40:20.534Z,79.08
2023-02-11T08:45:20.393Z,79.09
2023-02-11T08:50:20.940Z,79.23
2023-02-11T08:55:20.265Z,78.31
2023-02-11T09:00:20.743Z,78.67
2023-02-11T09:05:21.793Z,78.88
2023-02-11T09:10:20.261Z,78.84
2023-02-11T09:15:20.430Z,78.53
2023-02-11T09:20:21.128Z,78.90
2023-02-11T09:25:20.490Z,79.20
2023-02-11T09:30:20.789Z,79.05
2023-02-11T09:35:20.462Z,79.16
2023-02-11T09:40:21.288Z,79.43
2023-02-11T09:45:23.402Z,79.50
2023-02-11T09:50:25.237Z,79.88
2023-02-11T09:55:24.163Z,81.07
2023-02-11T10:00:26.783Z,82.09
2023-02-11T10:05:30.797Z,82.85
2023-02-11T10:10:34.486Z,83.37
2023-02-11T10:15:28.341Z,82.68
2023-02-11T10:20:29.007Z,83.21
2023-02-11T10:25:23.795Z,83.89
2023-02-11T10:30:27.718Z,84.57
2023-02-11T10:35:22.509Z,84.09
2023-02-11T10:40:22.181Z,84.66
2023-02-11T10:45:26.223Z,85.10
2023-02-11T10:50:23.186Z,85.57
2023-02-11T10:55:25.113Z,85.23
2023-02-11T11:00:29.998Z,85.75
2023-02-11T11:05:25.962Z,86.20
2023-02-11T11:10:34.590Z,85.79
2023-02-11T11:15:22.543Z,85.78
2023-02-11T11:20:26.289Z,85.35
2023-02-11T11:25:23.117Z,85.85
2023-02-11T11:30:24.285Z,85.29
2023-02-11T11:35:24.877Z,85.67
2023-02-11T11:40:24.432Z,86.48
2023-02-11T11:45:25.021Z,86.46
2023-02-11T11:50:26.919Z,86.81
2023-02-11T11:55:25.995Z,86.95
2023-02-11T12:00:26.898Z,86.92
2023-02-11T12:05:25.719Z,87.64
2023-02-11T12:10:30.819Z,87.73
2023-02-11T12:15:30.213Z,87.83
2023-02-11T12:20:28.330Z,88.16
2023-02-11T12:25:25.872Z,87.93
2023-02-11T12:30:33.498Z,87.41
2023-02-11T12:35:27.476Z,88.25
2023-02-11T12:40:27.806Z,88.16
2023-02-11T12:45:29.645Z,88.26
2023-02-11T12:50:29.133Z,87.32
2023-02-11T12:55:24.132Z,87.56
2023-02-11T13:00:24.565Z,87.82
2023-02-11T13:05:25.294Z,87.87
2023-02-11T13:10:26.683Z,87.76
2023-02-11T13:15:20.029Z,88.07
2023-02-11T13:20:27.666Z,88.29
2023-02-11T13:25:30.700Z,88.06
2023-02-11T13:30:27.380Z,87.42
2023-02-11T13:35:28.800Z,87.63
2023-02-11T13:40:22.148Z,88.23
2023-02-11T13:45:29.256Z,88.52
2023-02-11T13:50:22.937Z,88.93
2023-02-11T13:55:22.506Z,88.28
2023-02-11T14:00:39.930Z,88.50
2023-02-11T14:05:35.379Z,88.60
2023-02-11T14:10:39.887Z,88.15
2023-02-11T14:15:25.632Z,88.67
2023-02-11T14:20:32.283Z,88.06
2023-02-11T14:25:23.111Z,88.73
2023-02-11T14:30:28.768Z,89.46
2023-02-11T14:35:29.535Z,89.05
2023-02-11T14:40:28.535Z,88.97
2023-02-11T14:45:24.191Z,88.82
2023-02-11T14:50:26.059Z,88.87
2023-02-11T14:55:28.216Z,89.18
2023-02-11T15:00:22.065Z,88.82
2023-02-11T15:05:25.230Z,89.09
2023-02-11T15:10:29.445Z,89.21
2023-02-11T15:15:20.797Z,88.92
2023-02-11T15:20:25.620Z,89.47
2023-02-11T15:25:23.058Z,89.26
2023-02-11T15:30:26.156Z,89.36
2023-02-11T15:35:20.142Z,89.52
2023-02-11T15:40:22.230Z,89.81
2023-02-11T15:45:25.057Z,89.27
2023-02-11T15:50:22.443Z,89.51
2023-02-11T15:55:20.695Z,89.34
2023-02-11T16:00:23.731Z,89.59
2023-02-11T16:05:27.212Z,90.43
2023-02-11T16:10:23.357Z,89.44
2023-02-11T16:15:29.300Z,90.31
2023-02-11T16:20:20.334Z,90.29
2023-02-11T16:25:21.525Z,89.93
2023-02-11T16:30:26.977Z,89.23
2023-02-11T16:35:20.162Z,89.71
2023-02-11T16:40:20.292Z,89.31
2023-02-11T16:45:19.938Z,89.40
2023-02-11T16:50:22.384Z,88.89
2023-02-11T16:55:21.975Z,89.22
2023-02-11T17:00:20.656Z,89.43
2023-02-11T17:05:24.132Z,88.72
2023-02-11T17:09:21.935Z,88.94
2023-02-11T17:10:21.826Z,88.94
2023-02-11T17:15:19.856Z,89.26
2023-02-11T17:20:20.358Z,89.24
2023-02-11T17:25:19.912Z,88.74
2023-02-11T17:30:22.003Z,88.80
2023-02-11T17:35:20.227Z,88.45
2023-02-11T17:40:20.208Z,88.37
2023-02-11T17:45:22.278Z,88.14
2023-02-11T17:50:20.292Z,88.52
2023-02-11T17:55:19.798Z,88.23
2023-02-11T18:00:21.556Z,88.03
2023-02-11T18:05:20.102Z,87.86
2023-02-11T18:10:20.191Z,87.78
2023-02-11T18:15:19.969Z,87.74
2023-02-11T18:20:20.360Z,87.61
2023-02-11T18:25:20.045Z,87.57
2023-02-11T18:30:21.124Z,87.48
2023-02-11T18:35:20.615Z,87.70
2023-02-11T18:40:19.970Z,87.71
2023-02-11T18:45:20.043Z,87.96
2023-02-11T18:50:21.105Z,87.74
2023-02-11T18:55:24.376Z,87.60
2023-02-11T19:00:20.519Z,87.74
2023-02-11T19:05:20.674Z,87.64
2023-02-11T19:10:19.778Z,87.46
2023-02-11T19:15:19.758Z,87.21
2023-02-11T19:20:20.000Z,86.92
2023-02-11T19:25:19.723Z,86.82
2023-02-11T19:30:19.979Z,86.81
2023-02-11T19:35:19.977Z,86.35
2023-02-11T19:40:20.379Z,86.30
2023-02-11T19:45:19.812Z,86.42
2023-02-11T19:50:19.961Z,86.40
2023-02-11T19:55:19.788Z,86.22
2023-02-11T20:00:20.112Z,86.19
2023-02-11T20:05:19.969Z,86.06
2023-02-11T20:10:19.716Z,85.84
2023-02-11T20:15:20.063Z,85.42
2023-02-11T20:20:20.042Z,85.42
2023-02-11T20:25:19.752Z,85.47
2023-02-11T20:30:20.761Z,85.59
2023-02-11T20:35:19.845Z,85.55
2023-02-11T20:40:19.676Z,85.37
2023-02-11T20:45:19.811Z,85.26
2023-02-11T20:50:20.186Z,85.19
2023-02-11T20:55:19.644Z,85.12
2023-02-11T21:00:20.400Z,84.94
2023-02-11T21:05:19.860Z,84.92
2023-02-11T21:10:19.720Z,84.78
2023-02-11T21:15:23.279Z,84.59
2023-02-11T21:20:20.117Z,82.98
2023-02-11T21:25:21.371Z,81.49
2023-02-11T21:30:19.771Z,80.36
2023-02-11T21:35:20.092Z,80.13
2023-02-11T21:40:26.258Z,78.92
2023-02-11T21:45:19.799Z,79.52
2023-02-11T21:50:20.126Z,78.49
2023-02-11T21:55:19.608Z,78.82
2023-02-11T22:00:19.853Z,77.21
2023-02-11T22:05:20.307Z,77.32
2023-02-11T22:10:19.804Z,76.80
2023-02-11T22:15:19.688Z,77.72
2023-02-11T22:20:20.607Z,76.58
2023-02-11T22:25:19.691Z,76.02
2023-02-11T22:30:19.616Z,76.25
2023-02-11T22:35:20.035Z,74.73
2023-02-11T22:40:19.617Z,74.96
2023-02-11T22:45:19.600Z,74.84
2023-02-11T22:50:19.847Z,74.48
2023-02-11T22:55:19.572Z,73.53
2023-02-11T23:00:20.221Z,73.53
2023-02-11T23:05:19.887Z,73.51
2023-02-11T23:10:19.857Z,73.89
2023-02-11T23:15:19.706Z,74.52
2023-02-11T23:20:19.957Z,73.89
2023-02-11T23:23:53.876Z,73.89
2023-02-11T23:25:16.974Z,73.28
2023-02-11T23:25:19.462Z,73.28
2023-02-11T23:30:20.971Z,73.49
2023-02-11T23:35:22.249Z,73.82
2023-02-11T23:40:20.600Z,73.82
2023-02-11T23:45:19.596Z,74.31
2023-02-11T23:50:20.821Z,74.17
2023-02-11T23:55:19.558Z,73.44
